Latest Weather Observations for Deniliquin

IDN60801

Issued at 10:32 am EDT Monday 27 February 2017 (issued every 30 minutes, with the page automatically refreshed every 10 minutes)

About weather observations | Map of weather stations | Latest weather observations for NSW | Other Formats
Station Details ID: 074258 Name: DENILIQUIN AIRPORT AWS Lat: -35.56 Lon: 144.95 Height: 94.0 m
Data from the previous 72 hours. | See also: Recent months at Deniliquin
Date/Time
EDT
Temp
°C
App
Temp
°C
Dew
Point
°C
Rel
Hum
%
Delta-T
°C
Wind Press
QNH
hPa
Press
MSL
hPa
Rain since
9am
mm
Dir  Spd
km/h
Gust
km/h
Spd
kts
Gust
kts
27/10:30am 24.7 20.4 10.6 41 7.8 ENE 24 32 13 17 1023.0 1022.6 0.0
27/10:00am 24.1 19.7 10.4 42 7.6 NE 24 32 13 17 1023.0 1022.6 0.0
27/09:30am 23.3 18.8 10.0 43 7.3 NE 24 32 13 17 1022.9 1022.5 0.0
27/09:00am 21.8 17.0 8.7 43 6.9 NE 24 32 13 17 1022.8 1022.4 0.0
27/08:30am 19.3 14.7 6.4 43 6.5 ENE 20 30 11 16 1022.5 1022.1 0.0
27/08:00am 18.3 14.6 6.5 46 5.9 ENE 15 22 8 12 1022.3 1021.9 0.0
27/07:30am 17.3 14.2 7.1 51 5.1 ENE 13 17 7 9 1022.0 1021.6 0.0
27/07:00am 17.0 13.6 7.6 54 4.7 ENE 15 19 8 10 1021.6 1021.2 0.0
27/06:30am 17.2 14.3 8.1 55 4.6 ENE 13 19 7 10 1021.3 1020.9 0.0
27/06:00am 17.9 13.9 8.2 53 5.0 ENE 19 22 10 12 1021.1 1020.7 0.0
27/05:30am 18.3 14.7 8.3 52 5.2 ENE 17 20 9 11 1020.8 1020.4 0.0
27/05:00am 19.0 15.0 8.4 50 5.5 ENE 19 22 10 12 1020.3 1019.9 0.0
27/04:30am 19.7 15.5 8.4 48 5.9 ENE 20 26 11 14 1020.0 1019.6 0.0
27/04:00am 20.7 16.2 8.7 46 6.3 NE 22 28 12 15 1019.8 1019.4 0.0
27/03:30am 21.4 16.6 9.0 45 6.6 NE 24 35 13 19 1019.7 1019.3 0.0
27/03:00am 21.7 16.9 8.9 44 6.8 NE 24 30 13 16 1019.8 1019.4 0.0
27/02:30am 21.6 17.7 8.5 43 6.9 NE 19 26 10 14 1019.6 1019.2 0.0
27/02:00am 21.7 18.1 8.2 42 7.1 ENE 17 24 9 13 1019.4 1019.0 0.0
27/01:30am 21.7 17.6 7.9 41 7.2 ENE 19 20 10 11 1019.3 1018.9 0.0
27/01:00am 21.2 17.7 7.1 40 7.2 E 15 17 8 9 1019.0 1018.6 0.0
27/12:30am 22.7 19.2 7.3 37 8.0 E 15 17 8 9 1018.9 1018.5 0.0
27/12:00am 23.6 19.7 7.3 35 8.5 E 17 20 9 11 1018.9 1018.5 0.0
 
Date/Time
EDT
Temp
°C
App
Temp
°C
Dew
Point
°C
Rel
Hum
%
Delta-T
°C
Wind Press
QNH
hPa
Press
MSL
hPa
Rain since
9am
mm
Dir  Spd
km/h
Gust
km/h
Spd
kts
Gust
kts
26/11:30pm 22.3 19.0 8.1 40 7.5 ESE 15 17 8 9 1018.6 1018.2 0.0
26/11:00pm 22.1 19.4 7.5 39 7.6 SE 11 11 6 6 1018.6 1018.2 0.0
26/10:30pm 22.2 19.5 7.2 38 7.8 SE 11 13 6 7 1018.5 1018.1 0.0
26/10:00pm 22.9 20.2 7.4 37 8.1 ESE 11 13 6 7 1018.4 1017.9 0.0
26/09:30pm 23.5 20.4 7.2 35 8.5 SE 13 13 7 7 1018.1 1017.6 0.0
26/09:00pm 24.4 21.6 7.1 33 9.1 ESE 11 11 6 6 1017.7 1017.2 0.0
26/08:30pm 25.4 22.6 7.1 31 9.6 ESE 11 11 6 6 1017.4 1016.9 0.0
26/08:00pm 27.9 24.4 7.2 27 11.1 ESE 15 15 8 8 1017.1 1016.6 0.0
26/07:30pm 30.2 26.6 6.8 23 12.6 ESE 15 19 8 10 1016.9 1016.4 0.0
26/07:00pm 31.1 27.5 6.9 22 13.1 E 15 22 8 12 1016.7 1016.2 0.0
26/06:30pm 31.4 27.9 7.1 22 13.2 E 15 20 8 11 1016.5 1016.0 0.0
26/06:00pm 31.4 28.0 7.8 23 13.0 E 15 26 8 14 1016.5 1016.0 0.0
26/05:30pm 31.7 27.5 7.4 22 13.3 E 19 30 10 16 1016.4 1015.9 0.0
26/05:00pm 31.4 27.8 8.4 24 12.8 ENE 17 28 9 15 1016.5 1016.0 0.0
26/04:30pm 31.6 27.6 9.2 25 12.6 SE 20 32 11 17 1016.7 1016.2 0.0
26/04:00pm 31.2 28.5 8.8 25 12.5 ENE 13 20 7 11 1016.8 1016.3 0.0
26/03:30pm 30.9 27.9 9.2 26 12.2 ENE 15 28 8 15 1017.1 1016.6 0.0
26/03:00pm 31.0 27.4 9.8 27 12.0 E 19 33 10 18 1017.5 1017.0 0.0
26/02:30pm 29.8 25.5 9.3 28 11.5 ENE 22 41 12 22 1018.0 1017.5 0.0
26/02:00pm 29.9 26.3 10.5 30 11.1 E 20 30 11 16 1018.3 1017.8 0.0
26/01:30pm 29.1 25.7 10.7 32 10.5 ENE 19 28 10 15 1018.6 1018.2 0.0
26/01:00pm 28.3 24.9 10.5 33 10.1 ENE 19 26 10 14 1018.9 1018.5 0.0
26/12:30pm 27.5 24.1 11.1 36 9.4 NE 20 30 11 16 1019.3 1018.9 0.0
26/12:00pm 27.0 23.1 10.7 36 9.2 NE 22 32 12 17 1019.5 1019.1 0.0
26/11:30am 27.1 23.0 11.6 38 8.9 NE 24 32 13 17 1019.8 1019.4 0.0
26/11:00am 25.6 21.1 11.4 41 8.1 ENE 26 35 14 19 1019.9 1019.5 0.0
26/10:30am 24.2 19.0 11.5 45 7.2 ENE 30 37 16 20 1020.1 1019.7 0.0
26/10:00am 23.3 17.7 11.4 47 6.7 ENE 32 41 17 22 1020.1 1019.7 0.0
26/09:30am 22.3 17.1 11.7 51 6.0 ENE 30 41 16 22 1020.0 1019.6 0.0
26/09:00am 21.1 16.8 12.0 56 5.1 E 26 35 14 19 1020.0 1019.6 0.0
26/08:30am 19.7 15.7 11.7 60 4.4 E 24 35 13 19 1019.6 1019.2 0.0
26/08:00am 18.2 15.4 11.3 64 3.8 E 17 20 9 11 1019.5 1019.1 0.0
26/07:30am 17.0 14.6 11.3 69 3.1 E 15 19 8 10 1019.1 1018.7 0.0
26/07:00am 16.3 13.8 11.2 72 2.7 E 15 19 8 10 1018.5 1018.1 0.0
26/06:30am 15.5 12.9 10.7 73 2.6 ENE 15 19 8 10 1018.3 1017.8 0.0
26/06:00am 15.0 12.2 10.0 72 2.6 E 15 19 8 10 1018.1 1017.6 0.0
26/05:30am 13.4 11.2 9.3 76 2.1 S 11 15 6 8 1018.1 1017.6 0.0
26/05:00am 13.1 10.7 8.6 74 2.3 ESE 11 11 6 6 1017.3 1016.8 0.0
26/04:30am 13.2 11.2 8.7 74 2.3 ESE 9 9 5 5 1017.2 1016.7 0.0
26/04:00am 12.7 10.8 7.6 71 2.5 SE 7 9 4 5 1017.2 1016.7 0.0
26/03:30am 12.7 10.4 7.6 71 2.5 S 9 9 5 5 1017.4 1016.9 0.0
26/03:00am 13.0 12.0 7.5 69 2.7 SSW 2 7 1 4 1017.7 1017.2 0.0
26/02:30am 13.9 11.7 7.9 67 3.0 SSW 9 13 5 7 1017.8 1017.3 0.0
26/02:00am 13.9 12.2 7.7 66 3.1 S 6 7 3 4 1017.8 1017.3 0.0
26/01:30am 14.2 11.2 7.7 65 3.2 SW 13 17 7 9 1018.0 1017.5 0.0
26/01:00am 14.4 12.0 7.2 62 3.5 SSW 9 11 5 6 1018.2 1017.7 0.0
26/12:30am 14.6 12.2 6.9 60 3.8 SW 9 13 5 7 1018.2 1017.7 0.0
26/12:00am 15.7 12.5 7.0 56 4.3 SW 13 15 7 8 1018.3 1017.8 0.0
 
Date/Time
EDT
Temp
°C
App
Temp
°C
Dew
Point
°C
Rel
Hum
%
Delta-T
°C
Wind Press
QNH
hPa
Press
MSL
hPa
Rain since
9am
mm
Dir  Spd
km/h
Gust
km/h
Spd
kts
Gust
kts
25/11:30pm 16.4 13.1 6.5 52 4.9 SSW 13 15 7 8 1018.2 1017.7 0.0
25/11:00pm 17.6 13.9 6.5 48 5.5 SSW 15 19 8 10 1018.1 1017.6 0.0
25/10:30pm 18.7 14.6 6.2 44 6.2 S 17 20 9 11 1018.0 1017.5 0.0
25/10:00pm 19.6 15.1 6.0 41 6.8 S 19 24 10 13 1017.9 1017.4 0.0
25/09:30pm 20.2 15.6 5.4 38 7.3 SSW 19 22 10 12 1017.7 1017.2 0.0
25/09:00pm 21.4 16.0 4.5 33 8.3 SSW 22 30 12 16 1017.4 1016.9 0.0
25/08:30pm 20.1 16.0 4.2 35 7.7 SW 15 17 8 9 1017.3 1016.8 0.0
25/08:00pm 23.0 18.2 4.5 30 9.1 S 19 24 10 13 1017.2 1016.7 0.0
25/07:30pm 24.8 19.4 4.5 27 10.2 S 22 28 12 15 1017.0 1016.5 0.0
25/07:00pm 25.6 19.7 4.1 25 10.7 S 24 32 13 17 1016.9 1016.4 0.0
25/06:30pm 26.0 20.2 4.5 25 10.9 S 24 32 13 17 1016.8 1016.3 0.0
25/06:00pm 26.8 21.0 4.6 24 11.3 SSW 24 33 13 18 1016.8 1016.3 0.0
25/05:30pm 26.8 23.1 4.6 24 11.3 SW 13 26 7 14 1016.6 1016.1 0.0
25/05:00pm 27.0 23.8 2.8 21 11.9 S 9 17 5 9 1016.6 1016.1 0.0
25/04:30pm 26.7 21.9 2.6 21 11.8 SSW 17 24 9 13 1016.9 1016.4 0.0
25/04:00pm 27.1 22.5 3.6 22 11.7 S 17 26 9 14 1017.2 1016.7 0.0
25/03:30pm 26.0 20.9 3.3 23 11.2 SW 19 26 10 14 1017.6 1017.1 0.0
25/03:00pm 26.9 22.2 5.2 25 11.1 SSW 19 33 10 18 1018.1 1017.6 0.0
25/02:30pm 26.0 22.9 5.6 27 10.5 SSW 11 24 6 13 1018.5 1018.1 0.0
25/02:00pm 25.4 21.3 6.1 29 10.0 SSE 17 26 9 14 1018.9 1018.5 0.0
25/01:30pm 24.7 20.6 6.0 30 9.6 S 17 35 9 19 1019.0 1018.6 0.0
25/01:00pm 23.7 20.1 6.9 34 8.7 S 15 24 8 13 1019.4 1019.0 0.0
25/12:30pm 23.2 18.8 7.3 36 8.3 SSW 20 28 11 15 1019.7 1019.3 0.0
25/12:00pm 23.2 19.3 7.3 36 8.3 SSW 17 26 9 14 1019.9 1019.5 0.0
25/11:30am 21.3 17.3 6.8 39 7.4 S 17 24 9 13 1020.3 1019.9 0.0
25/11:00am 20.3 15.9 6.6 41 6.9 S 19 24 10 13 1020.5 1020.1 0.0
25/10:30am 19.9 15.7 7.3 44 6.4 S 19 28 10 15 1020.7 1020.3 0.0
25/10:00am 18.3 13.8 6.8 47 5.7 S 20 28 11 15 1020.9 1020.5 0.0
25/09:30am 17.3 11.6 6.8 50 5.2 S 26 32 14 17 1020.9 1020.5 0.0
25/09:00am 16.7 10.8 7.4 54 4.7 S 28 33 15 18 1020.9 1020.5 0.0
25/08:30am 15.4 10.1 6.7 56 4.3 SSE 24 35 13 19 1020.5 1020.1 0.0
25/08:00am 14.3 9.7 6.6 60 3.7 S 20 28 11 15 1020.2 1019.8 0.0
25/07:30am 13.2 9.2 6.5 64 3.2 S 17 20 9 11 1019.8 1019.4 0.0
25/07:00am 12.9 8.5 6.5 65 3.1 S 19 24 10 13 1019.6 1019.2 0.0
25/06:30am 13.0 8.4 6.6 65 3.1 S 20 28 11 15 1019.6 1019.2 0.0
25/06:00am 13.2 8.9 6.8 65 3.1 S 19 26 10 14 1019.6 1019.2 0.0
25/05:30am 13.4 8.9 7.0 65 3.1 S 20 26 11 14 1019.4 1019.0 0.0
25/05:00am 13.1 9.2 6.9 66 3.0 S 17 24 9 13 1019.3 1018.9 0.0
25/04:30am 13.4 9.1 7.0 65 3.1 S 19 24 10 13 1019.3 1018.9 0.0
25/04:00am 13.6 9.3 7.2 65 3.1 S 19 24 10 13 1019.4 1019.0 0.0
25/03:30am 13.6 9.2 6.7 63 3.3 SSW 19 30 10 16 1019.4 1019.0 0.0
25/03:00am 13.9 9.3 6.7 62 3.5 S 20 26 11 14 1019.4 1019.0 0.0
25/02:30am 13.6 9.2 6.5 62 3.4 SSW 19 24 10 13 1019.8 1019.4 0.0
25/02:00am 14.2 9.6 6.6 60 3.7 SSW 20 28 11 15 1020.0 1019.6 0.0
25/01:30am 14.4 10.0 6.7 60 3.8 SSW 19 26 10 14 1020.2 1019.8 0.0
25/01:00am 14.8 10.3 6.9 59 3.9 SSW 20 28 11 15 1020.6 1020.2 0.0
25/12:30am 15.1 9.8 6.9 58 4.0 SSW 24 30 13 16 1020.7 1020.3 0.0
25/12:00am 15.3 9.6 6.8 57 4.2 SSW 26 33 14 18 1020.9 1020.5 0.0
 
Date/Time
EDT
Temp
°C
App
Temp
°C
Dew
Point
°C
Rel
Hum
%
Delta-T
°C
Wind Press
QNH
hPa
Press
MSL
hPa
Rain since
9am
mm
Dir  Spd
km/h
Gust
km/h
Spd
kts
Gust
kts
24/11:30pm 15.8 9.7 6.8 55 4.4 SSW 28 37 15 20 1021.0 1020.6 0.0
24/11:00pm 16.3 10.2 6.7 53 4.7 SSW 28 39 15 21 1021.1 1020.7 0.0
24/10:30pm 16.8 11.5 6.9 52 4.9 SSW 24 32 13 17 1021.3 1020.9 0.0
24/10:00pm 17.4 12.4 6.6 49 5.3 S 22 28 12 15 1021.2 1020.8 0.0
24/09:30pm 18.1 13.3 5.7 44 6.1 S 20 28 11 15 1021.1 1020.7 0.0
24/09:00pm 19.4 14.2 5.5 40 6.8 S 22 30 12 16 1020.6 1020.2 0.0
24/08:30pm 20.6 14.8 4.6 35 7.8 S 24 30 13 16 1020.2 1019.8 0.0
24/08:00pm 21.7 15.1 4.3 32 8.5 S 28 39 15 21 1020.0 1019.6 0.0
24/07:30pm 23.2 15.7 4.7 30 9.2 S 33 44 18 24 1019.7 1019.3 0.0
24/07:00pm 25.1 17.3 4.8 27 10.2 SSW 35 43 19 23 1019.3 1018.9 0.0
24/06:30pm 26.5 19.4 5.5 26 10.8 S 32 39 17 21 1019.1 1018.7 0.0
24/06:00pm 27.4 20.3 5.6 25 11.3 SSW 32 37 17 20 1019.0 1018.6 0.0
24/05:30pm 27.8 20.6 4.8 23 11.8 S 32 43 17 23 1018.9 1018.5 0.0
24/05:00pm 28.6 21.5 5.5 23 12.0 S 32 43 17 23 1018.7 1018.3 0.0
24/04:30pm 28.6 22.1 4.8 22 12.3 S 28 44 15 24 1018.9 1018.5 0.0
24/04:00pm 29.1 23.1 7.1 25 11.8 SSW 28 41 15 22 1019.0 1018.6 0.0
24/03:30pm 29.4 23.1 5.5 22 12.5 SSW 28 43 15 23 1019.3 1018.9 0.0
24/03:00pm 28.8 23.5 6.8 25 11.7 SSW 24 35 13 19 1019.6 1019.2 0.0
24/02:30pm 28.1 22.0 6.8 26 11.3 SSW 28 35 15 19 1020.0 1019.6 0.0
24/02:00pm 28.3 21.6 5.8 24 11.8 SSW 30 39 16 21 1020.3 1019.9 0.0
24/01:30pm 27.2 21.3 6.0 26 11.1 SW 26 37 14 20 1020.6 1020.2 0.0
24/01:00pm 26.0 19.8 6.1 28 10.3 SW 28 39 15 21 1021.0 1020.6 0.0
24/12:30pm 25.4 19.8 8.8 35 9.0 SW 28 41 15 22 1021.3 1020.9 0.0
24/12:00pm 24.5 19.3 8.9 37 8.4 SW 26 35 14 19 1021.6 1021.2 0.0
24/11:30am 23.8 19.2 9.8 41 7.7 SSW 24 33 13 18 1021.9 1021.5 0.0
24/11:00am 22.9 19.8 10.3 45 6.9 SSW 17 24 9 13 1022.0 1021.6 0.0

Other Formats:

Comma delimited format used in spreadsheet applications
http://www.bom.gov.au/fwo/IDN60801/IDN60801.95869.axf

JavaScript Object Notation format (JSON) in row-major order
http://www.bom.gov.au/fwo/IDN60801/IDN60801.95869.json